Time;durP1;ratioP1;P1;durP2;ratioP2;P2;SDS_P1;SDS_P2;PMS_P1;PMS_P2;Temp;Humidity;BMP_temperature;BMP_pressure;BME280_temperature;BME280_humidity;BME280_pressure;Samples;Min_cycle;Max_cycle;Signal;HPM_P1;HPM_P2
2022/12/30 00:09:05;;;;;;;9.00;2.80;;;10.50;99.90;;;;;;20998189;28;20597;-69
2022/12/30 00:40:01;;;;;;;4.30;2.00;;;10.30;99.90;;;;;;21009158;28;20213;-70
2022/12/30 01:00:24;;;;;;;4.20;2.10;;;10.00;99.50;;;;;;21007693;28;20607;-69
2022/12/30 01:10:26;;;;;;;5.50;2.50;;;9.90;99.80;;;;;;21006790;28;20319;-70
2022/12/30 01:20:27;;;;;;;9.83;2.47;;;9.90;99.90;;;;;;21005805;28;20211;-70
2022/12/30 01:30:29;;;;;;;8.47;2.63;;;9.70;99.90;;;;;;21005287;28;20702;-70
2022/12/30 01:40:38;;;;;;;9.23;2.60;;;9.50;99.90;;;;;;21004748;28;20705;-70
2022/12/30 01:50:55;;;;;;;5.07;2.37;;;9.50;99.90;;;;;;21003791;28;20235;-69
2022/12/30 02:00:57;;;;;;;5.80;3.17;;;9.50;99.90;;;;;;21002956;28;20262;-69
2022/12/30 02:10:59;;;;;;;8.27;3.37;;;9.40;99.90;;;;;;21002100;28;20231;-70
2022/12/30 02:21:29;;;;;;;6.87;3.53;;;9.30;99.90;;;;;;21001589;28;20225;-71
2022/12/30 02:31:55;;;;;;;6.13;3.20;;;9.30;99.90;;;;;;20999508;28;20761;-70
2022/12/30 02:52:36;;;;;;;6.67;3.13;;;9.40;99.90;;;;;;20998779;28;20234;-69
2022/12/30 03:13:19;;;;;;;6.83;2.93;;;9.20;99.90;;;;;;20997390;28;20242;-71
2022/12/30 03:33:43;;;;;;;8.07;2.90;;;9.00;99.90;;;;;;21000027;28;20233;-70
2022/12/30 03:43:44;;;;;;;7.50;2.90;;;9.00;99.90;;;;;;20996915;28;20264;-70
2022/12/30 03:53:46;;;;;;;11.67;2.90;;;11.20;99.90;;;;;;20994960;28;20247;-70
2022/12/30 04:03:48;;;;;;;10.63;2.90;;;8.90;99.90;;;;;;20995193;28;20273;-71
2022/12/30 04:13:51;;;;;;;6.67;2.43;;;8.80;99.90;;;;;;20994283;28;20322;-71
2022/12/30 04:23:53;;;;;;;11.70;2.87;;;8.80;99.90;;;;;;20994087;28;20215;-71
2022/12/30 04:33:55;;;;;;;12.77;2.97;;;8.70;99.90;;;;;;20993731;28;20261;-70
2022/12/30 04:43:56;;;;;;;8.10;2.27;;;8.60;99.90;;;;;;20993229;28;20200;-70
2022/12/30 04:53:58;;;;;;;12.07;2.77;;;8.60;99.90;;;;;;20993524;28;20253;-71
2022/12/30 05:03:59;;;;;;;15.27;2.87;;;8.40;99.90;;;;;;21007686;28;20660;-70
2022/12/30 05:14:01;;;;;;;12.80;3.10;;;8.40;99.90;;;;;;21006722;28;20296;-71
2022/12/30 05:34:23;;;;;;;9.03;2.60;;;8.40;99.90;;;;;;21005575;28;20756;-71
2022/12/30 05:44:25;;;;;;;10.33;3.33;;;8.30;99.90;;;;;;21004543;28;20212;-71
2022/12/30 05:54:27;;;;;;;9.23;3.10;;;8.30;99.90;;;;;;21003207;28;20323;-70
2022/12/30 06:04:29;;;;;;;13.23;3.43;;;8.30;99.90;;;;;;21002950;28;20204;-71
2022/12/30 06:14:30;;;;;;;10.00;3.23;;;8.30;99.90;;;;;;21001795;28;20282;-70
2022/12/30 06:24:32;;;;;;;8.63;3.10;;;8.30;99.90;;;;;;21000834;28;20212;-70
2022/12/30 06:34:33;;;;;;;8.60;3.57;;;8.20;99.90;;;;;;21000580;28;20652;-71
2022/12/30 06:44:36;;;;;;;9.10;3.03;;;;;;;;;;20999262;28;20601;-70
2022/12/30 06:54:37;;;;;;;10.33;3.63;;;8.20;99.90;;;;;;20997871;28;20266;-70
2022/12/30 07:04:39;;;;;;;15.23;6.20;;;8.20;99.90;;;;;;20998077;28;20689;-64
2022/12/30 07:14:40;;;;;;;13.77;4.10;;;8.20;99.90;;;;;;20997391;28;20231;-66
2022/12/30 07:24:42;;;;;;;12.40;4.53;;;8.30;99.90;;;;;;20995845;28;20268;-67
2022/12/30 07:34:44;;;;;;;11.87;5.10;;;8.20;99.90;;;;;;20996036;28;20277;-68
2022/12/30 07:44:46;;;;;;;12.63;5.77;;;8.20;99.90;;;;;;20995503;28;20204;-69
2022/12/30 07:54:47;;;;;;;12.73;5.87;;;8.10;99.90;;;;;;20994914;28;20308;-70
2022/12/30 08:04:49;;;;;;;12.83;6.40;;;8.00;99.80;;;;;;20994713;28;20211;-70
2022/12/30 08:14:53;;;;;;;17.37;6.73;;;7.90;99.80;;;;;;20993547;28;20234;-69
2022/12/30 08:24:55;;;;;;;9.43;5.30;;;7.90;99.90;;;;;;20993208;28;20248;-70
2022/12/30 08:34:57;;;;;;;10.47;4.83;;;8.00;99.90;;;;;;21004396;28;20261;-69
2022/12/30 08:44:58;;;;;;;11.00;4.40;;;8.30;99.90;;;;;;21008524;28;20212;-69
2022/12/30 08:55:00;;;;;;;6.50;3.77;;;;;;;;;;21007809;28;20309;-69
2022/12/30 09:05:02;;;;;;;9.67;3.60;;;8.80;99.90;;;;;;21007754;28;20799;-71
2022/12/30 09:15:04;;;;;;;11.10;3.23;;;9.00;99.90;;;;;;21006454;28;20235;-70
2022/12/30 09:25:07;;;;;;;6.20;3.23;;;9.00;99.80;;;;;;21005728;28;20568;-72
2022/12/30 09:35:08;;;;;;;7.97;3.00;;;9.10;99.90;;;;;;21005513;28;20244;-72
2022/12/30 09:45:26;;;;;;;8.93;3.00;;;9.20;99.50;;;;;;21004319;28;20209;-75
2022/12/30 09:55:32;;;;;;;5.63;2.97;;;9.20;99.70;;;;;;21003158;28;20353;-71
2022/12/30 10:06:02;;;;;;;8.17;3.00;;;9.30;99.70;;;;;;21002611;28;20263;-70
2022/12/30 10:16:06;;;;;;;6.97;2.73;;;9.50;99.20;;;;;;21001784;28;20236;-70
2022/12/30 10:26:14;;;;;;;3.20;2.40;;;9.60;99.30;;;;;;20919889;28;20212;-67
2022/12/30 10:36:21;;;;;;;5.80;2.30;;;9.70;99.30;;;;;;20915861;28;20228;-69
2022/12/30 10:46:44;;;;;;;4.27;1.90;;;9.80;99.10;;;;;;20916547;28;20299;-68
2022/12/30 10:56:51;;;;;;;2.87;1.80;;;9.90;99.00;;;;;;20915194;28;20247;-75
2022/12/30 11:07:01;;;;;;;3.03;1.80;;;10.10;98.50;;;;;;20917782;28;20275;-73
2022/12/30 11:17:15;;;;;;;3.17;1.67;;;10.60;98.00;;;;;;20924020;28;20230;-70
2022/12/30 11:27:37;;;;;;;2.53;1.50;;;10.60;98.20;;;;;;20913860;28;20234;-79
2022/12/30 11:37:39;;;;;;;2.47;1.40;;;10.90;98.00;;;;;;20912617;28;20258;-70
2022/12/30 11:47:45;;;;;;;1.50;1.30;;;11.00;97.50;;;;;;20911428;28;20246;-63
2022/12/30 11:57:47;;;;;;;1.80;1.20;;;11.00;97.20;;;;;;20911324;28;20214;-63
2022/12/30 12:07:53;;;;;;;10.87;3.80;;;11.60;96.20;;;;;;20924341;28;20232;-70
2022/12/30 12:17:55;;;;;;;4.00;1.40;;;;;;;;;;20970553;28;20259;-69
2022/12/30 12:36:39;;;;;;;5.33;1.40;;;12.20;94.90;;;;;;21152807;27;20510;-68
2022/12/30 12:47:06;;;;;;;1.83;1.10;;;12.00;94.50;;;;;;21067096;28;20250;-69
2022/12/30 12:57:17;;;;;;;2.07;1.20;;;11.90;94.40;;;;;;21066388;28;20203;-69
2022/12/30 13:07:55;;;;;;;2.40;1.57;;;11.80;94.20;;;;;;21065256;28;20237;-69
2022/12/30 13:18:22;;;;;;;3.13;1.80;;;11.40;94.00;;;;;;21065851;28;20210;-69
2022/12/30 13:28:33;;;;;;;2.97;1.63;;;11.30;94.10;;;;;;21044168;28;20238;-69
2022/12/30 13:38:58;;;;;;;2.60;1.70;;;11.30;94.40;;;;;;20972986;28;20207;-69
2022/12/30 13:49:04;;;;;;;4.57;1.87;;;11.10;94.60;;;;;;20923801;28;20238;-69
2022/12/30 13:59:25;;;;;;;3.27;2.10;;;11.00;94.80;;;;;;20923022;28;20207;-69
2022/12/30 14:09:33;;;;;;;3.33;2.13;;;10.90;95.00;;;;;;20921932;28;20234;-69
2022/12/30 14:19:45;;;;;;;3.17;2.53;;;10.80;95.20;;;;;;20921244;28;20622;-69
2022/12/30 14:30:28;;;;;;;5.83;3.13;;;10.70;95.40;;;;;;20920139;28;20671;-71
2022/12/30 14:40:33;;;;;;;4.87;2.50;;;10.70;95.50;;;;;;20891017;28;20265;-68
2022/12/30 14:50:42;;;;;;;5.17;2.70;;;10.70;95.90;;;;;;20882729;28;20244;-64
2022/12/30 15:00:48;;;;;;;3.57;2.87;;;10.60;95.80;;;;;;20861370;28;20609;-69
2022/12/30 15:10:53;;;;;;;3.87;2.60;;;10.50;96.20;;;;;;20868185;28;20230;-65
2022/12/30 15:20:55;;;;;;;3.53;2.60;;;10.50;96.40;;;;;;20835003;28;20635;-64
2022/12/30 15:30:57;;;;;;;3.50;2.90;;;;;;;;;;20832856;28;20564;-71
2022/12/30 15:41:02;;;;;;;3.33;3.00;;;10.40;96.50;;;;;;20833283;28;20230;-72
2022/12/30 15:51:09;;;;;;;5.17;3.00;;;10.50;97.00;;;;;;20865816;28;20234;-65
2022/12/30 16:01:15;;;;;;;3.70;3.13;;;10.40;97.30;;;;;;20831230;28;20668;-64
2022/12/30 16:11:30;;;;;;;4.20;3.17;;;10.30;97.70;;;;;;20830593;28;20288;-67
2022/12/30 16:21:52;;;;;;;4.13;3.00;;;10.20;98.30;;;;;;20831010;28;20241;-71
2022/12/30 16:31:54;;;;;;;4.70;2.93;;;10.20;98.50;;;;;;20829840;28;20247;-66
2022/12/30 16:41:56;;;;;;;4.43;2.90;;;10.10;99.00;;;;;;20838302;28;20612;-73
2022/12/30 16:51:58;;;;;;;6.17;2.80;;;10.10;99.50;;;;;;20855214;28;20705;-70
2022/12/30 17:02:01;;;;;;;4.80;2.90;;;10.10;99.90;;;;;;20828534;28;20212;-73
2022/12/30 17:12:03;;;;;;;3.50;2.60;;;10.20;99.90;;;;;;20828161;28;20266;-69
2022/12/30 17:22:08;;;;;;;6.53;4.07;;;10.30;99.90;;;;;;20841612;28;20608;-75
2022/12/30 17:32:36;;;;;;;7.40;3.30;;;10.30;99.90;;;;;;20842828;28;20243;-73
2022/12/30 17:42:38;;;;;;;4.30;3.07;;;10.40;99.90;;;;;;20855958;28;20201;-76
2022/12/30 17:52:39;;;;;;;5.53;3.50;;;10.40;99.90;;;;;;20861060;28;20229;-78
2022/12/30 18:02:41;;;;;;;3.17;2.30;;;10.50;99.90;;;;;;20840245;28;20261;-75
2022/12/30 18:12:43;;;;;;;2.97;2.17;;;10.60;99.90;;;;;;20839123;28;20750;-70
2022/12/30 18:22:45;;;;;;;2.97;2.00;;;10.60;99.90;;;;;;20838869;28;20776;-69
2022/12/30 18:32:47;;;;;;;2.23;1.90;;;10.70;99.90;;;;;;20837545;28;20245;-64
2022/12/30 18:42:48;;;;;;;2.60;1.70;;;10.70;99.90;;;;;;20834971;28;20207;-66
2022/12/30 18:52:50;;;;;;;4.00;1.80;;;10.80;99.90;;;;;;20834574;28;20294;-67
2022/12/30 19:02:51;;;;;;;1.70;1.60;;;10.80;99.90;;;;;;20846194;28;20207;-66
2022/12/30 19:12:53;;;;;;;3.93;2.07;;;10.90;99.90;;;;;;20916964;28;20325;-66
2022/12/30 19:22:55;;;;;;;3.50;2.03;;;10.90;99.90;;;;;;20916407;28;20540;-66
2022/12/30 19:32:57;;;;;;;2.10;1.90;;;11.00;99.90;;;;;;20915995;28;20247;-66
2022/12/30 19:42:58;;;;;;;2.00;1.80;;;11.10;99.90;;;;;;20914368;28;20210;-65
2022/12/30 19:53:00;;;;;;;3.20;2.60;;;11.20;99.90;;;;;;20913997;28;20705;-67
2022/12/30 20:03:02;;;;;;;3.20;2.30;;;11.20;99.90;;;;;;20913085;28;20214;-69
2022/12/30 20:13:04;;;;;;;3.00;2.40;;;11.30;99.90;;;;;;20910644;28;20235;-68
2022/12/30 20:23:06;;;;;;;2.33;2.00;;;11.40;99.90;;;;;;20910625;28;20214;-68
2022/12/30 20:33:07;;;;;;;3.00;1.90;;;11.50;99.90;;;;;;20910085;28;20268;-67
2022/12/30 20:43:09;;;;;;;2.47;1.97;;;11.50;99.90;;;;;;20909499;28;20608;-67
2022/12/30 20:53:11;;;;;;;3.40;1.73;;;11.60;99.90;;;;;;20917571;28;20292;-67
2022/12/30 21:03:12;;;;;;;2.40;2.00;;;11.60;99.90;;;;;;20908004;28;20211;-68
2022/12/30 21:13:14;;;;;;;2.30;2.00;;;11.70;99.90;;;;;;20924637;28;20237;-68
2022/12/30 21:23:16;;;;;;;2.43;1.90;;;11.80;99.90;;;;;;20923520;28;20204;-67
2022/12/30 21:33:18;;;;;;;2.20;1.70;;;11.90;99.90;;;;;;20923226;28;20274;-68
2022/12/30 22:04:24;;;;;;;2.57;2.30;;;12.30;99.90;;;;;;20715259;28;20220;-67
2022/12/30 22:14:26;;;;;;;2.40;2.20;;;12.30;99.90;;;;;;20902323;28;20768;-69
2022/12/30 22:24:27;;;;;;;2.57;2.13;;;12.30;99.90;;;;;;20902783;28;20208;-68
2022/12/30 22:34:29;;;;;;;2.37;2.17;;;12.40;99.90;;;;;;20920275;28;20249;-66
2022/12/30 22:44:31;;;;;;;2.60;1.80;;;12.50;99.90;;;;;;20919746;28;20214;-67
2022/12/30 22:54:34;;;;;;;2.30;2.10;;;12.70;99.90;;;;;;20918922;28;20233;-66
2022/12/30 23:04:35;;;;;;;3.43;2.00;;;12.60;99.90;;;;;;20918224;28;20718;-66
2022/12/30 23:25:01;;;;;;;2.20;2.00;;;12.80;99.90;;;;;;20916457;28;20211;-66
2022/12/30 23:35:04;;;;;;;2.77;1.77;;;12.90;99.90;;;;;;20915774;28;20242;-65
2022/12/30 23:45:08;;;;;;;3.10;1.73;;;12.90;99.90;;;;;;20914978;28;20209;-65
2022/12/30 23:55:09;;;;;;;2.00;1.70;;;13.00;99.90;;;;;;20914461;28;20578;-67
